sensor_id;sensor_type;location;lat;lon;timestamp;P1;durP1;ratioP1;P2;durP2;ratioP2
20545;SDS011;10431;50.228;9.112;2023-12-04T00:01:46;6.03;;;3.20;;
20545;SDS011;10431;50.228;9.112;2023-12-04T00:04:13;6.45;;;3.40;;
20545;SDS011;10431;50.228;9.112;2023-12-04T00:06:41;4.18;;;3.30;;
20545;SDS011;10431;50.228;9.112;2023-12-04T00:09:07;5.78;;;3.42;;
20545;SDS011;10431;50.228;9.112;2023-12-04T00:11:34;4.57;;;3.28;;
20545;SDS011;10431;50.228;9.112;2023-12-04T00:14:00;5.70;;;3.47;;
20545;SDS011;10431;50.228;9.112;2023-12-04T00:16:26;4.95;;;3.80;;
20545;SDS011;10431;50.228;9.112;2023-12-04T00:18:52;3.92;;;3.13;;
20545;SDS011;10431;50.228;9.112;2023-12-04T00:21:18;3.88;;;3.10;;
20545;SDS011;10431;50.228;9.112;2023-12-04T00:23:45;5.28;;;3.42;;
20545;SDS011;10431;50.228;9.112;2023-12-04T00:26:12;4.35;;;3.10;;
20545;SDS011;10431;50.228;9.112;2023-12-04T00:28:38;4.93;;;3.55;;
20545;SDS011;10431;50.228;9.112;2023-12-04T00:31:04;5.35;;;3.20;;
20545;SDS011;10431;50.228;9.112;2023-12-04T00:33:31;5.25;;;3.40;;
20545;SDS011;10431;50.228;9.112;2023-12-04T00:35:57;3.75;;;3.00;;
20545;SDS011;10431;50.228;9.112;2023-12-04T00:38:23;5.82;;;3.30;;
20545;SDS011;10431;50.228;9.112;2023-12-04T00:40:49;4.10;;;3.15;;
20545;SDS011;10431;50.228;9.112;2023-12-04T00:43:16;5.93;;;3.58;;
20545;SDS011;10431;50.228;9.112;2023-12-04T00:45:42;4.63;;;2.90;;
20545;SDS011;10431;50.228;9.112;2023-12-04T00:48:08;4.15;;;3.25;;
20545;SDS011;10431;50.228;9.112;2023-12-04T00:50:34;7.75;;;3.08;;
20545;SDS011;10431;50.228;9.112;2023-12-04T00:53:00;5.05;;;3.17;;
20545;SDS011;10431;50.228;9.112;2023-12-04T00:55:27;4.93;;;3.20;;
20545;SDS011;10431;50.228;9.112;2023-12-04T00:57:53;4.38;;;3.15;;
20545;SDS011;10431;50.228;9.112;2023-12-04T01:00:19;5.10;;;3.28;;
20545;SDS011;10431;50.228;9.112;2023-12-04T01:02:45;6.00;;;3.15;;
20545;SDS011;10431;50.228;9.112;2023-12-04T01:05:11;4.70;;;2.95;;
20545;SDS011;10431;50.228;9.112;2023-12-04T01:07:38;4.38;;;3.13;;
20545;SDS011;10431;50.228;9.112;2023-12-04T01:10:04;4.68;;;3.20;;
20545;SDS011;10431;50.228;9.112;2023-12-04T01:12:30;4.78;;;3.10;;
20545;SDS011;10431;50.228;9.112;2023-12-04T01:14:57;5.53;;;3.08;;
20545;SDS011;10431;50.228;9.112;2023-12-04T01:17:23;4.43;;;3.10;;
20545;SDS011;10431;50.228;9.112;2023-12-04T01:19:49;3.75;;;2.92;;
20545;SDS011;10431;50.228;9.112;2023-12-04T01:22:15;5.00;;;3.22;;
20545;SDS011;10431;50.228;9.112;2023-12-04T01:24:41;4.53;;;2.85;;
20545;SDS011;10431;50.228;9.112;2023-12-04T01:27:08;4.60;;;3.30;;
20545;SDS011;10431;50.228;9.112;2023-12-04T01:29:34;3.83;;;2.83;;
20545;SDS011;10431;50.228;9.112;2023-12-04T01:32:01;3.67;;;2.90;;
20545;SDS011;10431;50.228;9.112;2023-12-04T01:34:27;4.40;;;3.05;;
20545;SDS011;10431;50.228;9.112;2023-12-04T01:36:53;3.80;;;2.85;;
20545;SDS011;10431;50.228;9.112;2023-12-04T01:39:19;4.35;;;2.92;;
20545;SDS011;10431;50.228;9.112;2023-12-04T01:41:45;4.25;;;3.20;;
20545;SDS011;10431;50.228;9.112;2023-12-04T01:44:12;4.63;;;3.30;;
20545;SDS011;10431;50.228;9.112;2023-12-04T01:46:38;4.32;;;2.72;;
20545;SDS011;10431;50.228;9.112;2023-12-04T01:49:04;3.92;;;2.88;;
20545;SDS011;10431;50.228;9.112;2023-12-04T01:51:31;3.65;;;3.00;;
20545;SDS011;10431;50.228;9.112;2023-12-04T01:53:58;4.60;;;3.10;;
20545;SDS011;10431;50.228;9.112;2023-12-04T01:56:26;3.75;;;2.88;;
20545;SDS011;10431;50.228;9.112;2023-12-04T01:58:52;3.97;;;3.03;;
20545;SDS011;10431;50.228;9.112;2023-12-04T02:01:19;3.47;;;2.55;;
20545;SDS011;10431;50.228;9.112;2023-12-04T02:03:46;4.93;;;3.00;;
20545;SDS011;10431;50.228;9.112;2023-12-04T02:06:12;3.63;;;2.88;;
20545;SDS011;10431;50.228;9.112;2023-12-04T02:08:40;4.35;;;3.28;;
20545;SDS011;10431;50.228;9.112;2023-12-04T02:11:06;3.78;;;2.80;;
20545;SDS011;10431;50.228;9.112;2023-12-04T02:13:32;3.75;;;2.60;;
20545;SDS011;10431;50.228;9.112;2023-12-04T02:16:00;4.53;;;3.33;;
20545;SDS011;10431;50.228;9.112;2023-12-04T02:18:32;4.25;;;3.10;;
20545;SDS011;10431;50.228;9.112;2023-12-04T02:21:00;3.35;;;2.55;;
20545;SDS011;10431;50.228;9.112;2023-12-04T02:23:27;4.15;;;3.00;;
20545;SDS011;10431;50.228;9.112;2023-12-04T02:25:59;4.65;;;2.90;;
20545;SDS011;10431;50.228;9.112;2023-12-04T02:28:32;3.63;;;2.95;;
20545;SDS011;10431;50.228;9.112;2023-12-04T02:31:00;4.03;;;2.70;;
20545;SDS011;10431;50.228;9.112;2023-12-04T02:33:29;3.92;;;3.03;;
20545;SDS011;10431;50.228;9.112;2023-12-04T02:35:56;3.55;;;2.72;;
20545;SDS011;10431;50.228;9.112;2023-12-04T02:38:24;4.07;;;3.00;;
20545;SDS011;10431;50.228;9.112;2023-12-04T02:40:50;3.67;;;2.80;;
20545;SDS011;10431;50.228;9.112;2023-12-04T02:43:16;3.05;;;2.53;;
20545;SDS011;10431;50.228;9.112;2023-12-04T02:45:43;5.30;;;2.92;;
20545;SDS011;10431;50.228;9.112;2023-12-04T02:48:09;3.65;;;2.67;;
20545;SDS011;10431;50.228;9.112;2023-12-04T02:50:35;3.65;;;2.58;;
20545;SDS011;10431;50.228;9.112;2023-12-04T02:53:02;3.17;;;2.70;;
20545;SDS011;10431;50.228;9.112;2023-12-04T02:55:28;4.72;;;2.60;;
20545;SDS011;10431;50.228;9.112;2023-12-04T02:57:54;4.15;;;3.03;;
20545;SDS011;10431;50.228;9.112;2023-12-04T03:00:20;3.80;;;3.08;;
20545;SDS011;10431;50.228;9.112;2023-12-04T03:02:46;4.95;;;2.88;;
20545;SDS011;10431;50.228;9.112;2023-12-04T03:05:13;3.83;;;2.85;;
20545;SDS011;10431;50.228;9.112;2023-12-04T03:07:39;4.15;;;2.45;;
20545;SDS011;10431;50.228;9.112;2023-12-04T03:10:05;3.80;;;2.63;;
20545;SDS011;10431;50.228;9.112;2023-12-04T03:12:32;3.22;;;2.33;;
20545;SDS011;10431;50.228;9.112;2023-12-04T03:14:58;4.10;;;2.70;;
20545;SDS011;10431;50.228;9.112;2023-12-04T03:17:24;4.28;;;2.70;;
20545;SDS011;10431;50.228;9.112;2023-12-04T03:19:50;4.07;;;2.83;;
20545;SDS011;10431;50.228;9.112;2023-12-04T03:22:17;4.15;;;2.53;;
20545;SDS011;10431;50.228;9.112;2023-12-04T03:24:43;3.50;;;2.42;;
20545;SDS011;10431;50.228;9.112;2023-12-04T03:27:09;3.25;;;2.33;;
20545;SDS011;10431;50.228;9.112;2023-12-04T03:29:36;3.47;;;2.58;;
20545;SDS011;10431;50.228;9.112;2023-12-04T03:32:02;3.10;;;2.50;;
20545;SDS011;10431;50.228;9.112;2023-12-04T03:34:28;2.92;;;2.60;;
20545;SDS011;10431;50.228;9.112;2023-12-04T03:36:54;6.30;;;2.70;;
20545;SDS011;10431;50.228;9.112;2023-12-04T03:39:20;2.92;;;2.38;;
20545;SDS011;10431;50.228;9.112;2023-12-04T03:41:47;3.78;;;2.80;;
20545;SDS011;10431;50.228;9.112;2023-12-04T03:44:13;2.95;;;2.50;;
20545;SDS011;10431;50.228;9.112;2023-12-04T03:46:39;2.88;;;2.42;;
20545;SDS011;10431;50.228;9.112;2023-12-04T03:49:05;4.32;;;2.90;;
20545;SDS011;10431;50.228;9.112;2023-12-04T03:51:31;3.08;;;2.42;;
20545;SDS011;10431;50.228;9.112;2023-12-04T03:53:58;3.20;;;2.45;;
20545;SDS011;10431;50.228;9.112;2023-12-04T03:56:24;6.18;;;2.55;;
20545;SDS011;10431;50.228;9.112;2023-12-04T03:58:50;3.30;;;2.40;;
20545;SDS011;10431;50.228;9.112;2023-12-04T04:01:16;2.80;;;2.30;;
20545;SDS011;10431;50.228;9.112;2023-12-04T04:03:42;2.65;;;2.33;;
20545;SDS011;10431;50.228;9.112;2023-12-04T04:06:09;3.13;;;2.45;;
20545;SDS011;10431;50.228;9.112;2023-12-04T04:08:35;3.13;;;2.38;;
20545;SDS011;10431;50.228;9.112;2023-12-04T04:11:01;3.60;;;2.63;;
20545;SDS011;10431;50.228;9.112;2023-12-04T04:13:28;2.85;;;2.45;;
20545;SDS011;10431;50.228;9.112;2023-12-04T04:15:54;4.32;;;2.95;;
20545;SDS011;10431;50.228;9.112;2023-12-04T04:18:20;2.85;;;2.42;;
20545;SDS011;10431;50.228;9.112;2023-12-04T04:20:46;5.68;;;2.80;;
20545;SDS011;10431;50.228;9.112;2023-12-04T04:23:13;2.95;;;2.25;;
20545;SDS011;10431;50.228;9.112;2023-12-04T04:25:39;3.60;;;2.20;;
20545;SDS011;10431;50.228;9.112;2023-12-04T04:28:05;3.50;;;2.42;;
20545;SDS011;10431;50.228;9.112;2023-12-04T04:30:31;3.08;;;2.28;;
20545;SDS011;10431;50.228;9.112;2023-12-04T04:32:57;3.88;;;2.30;;
20545;SDS011;10431;50.228;9.112;2023-12-04T04:35:23;4.13;;;2.20;;
20545;SDS011;10431;50.228;9.112;2023-12-04T04:37:50;3.88;;;2.50;;
20545;SDS011;10431;50.228;9.112;2023-12-04T04:40:16;2.88;;;2.30;;
20545;SDS011;10431;50.228;9.112;2023-12-04T04:42:42;3.78;;;2.63;;
20545;SDS011;10431;50.228;9.112;2023-12-04T04:45:09;3.10;;;2.50;;
20545;SDS011;10431;50.228;9.112;2023-12-04T04:47:35;2.88;;;2.33;;
20545;SDS011;10431;50.228;9.112;2023-12-04T04:50:02;4.65;;;2.20;;
20545;SDS011;10431;50.228;9.112;2023-12-04T04:52:28;2.90;;;2.25;;
20545;SDS011;10431;50.228;9.112;2023-12-04T04:54:55;3.72;;;2.10;;
20545;SDS011;10431;50.228;9.112;2023-12-04T04:57:21;3.72;;;2.55;;
20545;SDS011;10431;50.228;9.112;2023-12-04T04:59:47;3.45;;;2.50;;
20545;SDS011;10431;50.228;9.112;2023-12-04T05:02:13;3.33;;;2.38;;
20545;SDS011;10431;50.228;9.112;2023-12-04T05:04:40;2.60;;;2.40;;
20545;SDS011;10431;50.228;9.112;2023-12-04T05:07:06;2.30;;;2.10;;
20545;SDS011;10431;50.228;9.112;2023-12-04T05:09:32;3.33;;;2.40;;
20545;SDS011;10431;50.228;9.112;2023-12-04T05:11:58;2.78;;;2.30;;
20545;SDS011;10431;50.228;9.112;2023-12-04T05:14:24;4.35;;;2.20;;
20545;SDS011;10431;50.228;9.112;2023-12-04T05:16:52;3.67;;;2.53;;
20545;SDS011;10431;50.228;9.112;2023-12-04T05:19:18;3.28;;;1.98;;
20545;SDS011;10431;50.228;9.112;2023-12-04T05:21:44;2.75;;;2.30;;
20545;SDS011;10431;50.228;9.112;2023-12-04T05:24:11;3.90;;;2.35;;
20545;SDS011;10431;50.228;9.112;2023-12-04T05:26:37;3.00;;;2.38;;
20545;SDS011;10431;50.228;9.112;2023-12-04T05:29:03;5.13;;;2.40;;
20545;SDS011;10431;50.228;9.112;2023-12-04T05:31:29;2.72;;;2.25;;
20545;SDS011;10431;50.228;9.112;2023-12-04T05:33:55;2.40;;;2.20;;
20545;SDS011;10431;50.228;9.112;2023-12-04T05:36:21;2.28;;;2.05;;
20545;SDS011;10431;50.228;9.112;2023-12-04T05:38:48;2.53;;;2.20;;
20545;SDS011;10431;50.228;9.112;2023-12-04T05:41:14;3.67;;;2.50;;
20545;SDS011;10431;50.228;9.112;2023-12-04T05:43:40;2.45;;;2.10;;
20545;SDS011;10431;50.228;9.112;2023-12-04T05:46:06;2.80;;;2.28;;
20545;SDS011;10431;50.228;9.112;2023-12-04T05:48:32;2.92;;;2.30;;
20545;SDS011;10431;50.228;9.112;2023-12-04T05:50:58;2.95;;;2.40;;
20545;SDS011;10431;50.228;9.112;2023-12-04T05:53:25;2.33;;;2.10;;
20545;SDS011;10431;50.228;9.112;2023-12-04T05:55:51;3.13;;;2.38;;
20545;SDS011;10431;50.228;9.112;2023-12-04T05:58:17;2.25;;;2.05;;
20545;SDS011;10431;50.228;9.112;2023-12-04T06:00:43;2.42;;;2.17;;
20545;SDS011;10431;50.228;9.112;2023-12-04T06:03:09;2.25;;;1.95;;
20545;SDS011;10431;50.228;9.112;2023-12-04T06:05:35;4.10;;;2.10;;
20545;SDS011;10431;50.228;9.112;2023-12-04T06:08:02;2.85;;;2.10;;
20545;SDS011;10431;50.228;9.112;2023-12-04T06:10:28;2.75;;;2.05;;
20545;SDS011;10431;50.228;9.112;2023-12-04T06:12:54;2.25;;;2.05;;
20545;SDS011;10431;50.228;9.112;2023-12-04T06:15:20;2.60;;;2.03;;
20545;SDS011;10431;50.228;9.112;2023-12-04T06:17:47;2.40;;;2.05;;
20545;SDS011;10431;50.228;9.112;2023-12-04T06:20:13;3.05;;;2.20;;
20545;SDS011;10431;50.228;9.112;2023-12-04T06:22:39;3.08;;;1.88;;
20545;SDS011;10431;50.228;9.112;2023-12-04T06:25:06;2.50;;;2.10;;
20545;SDS011;10431;50.228;9.112;2023-12-04T06:27:32;3.22;;;2.20;;
20545;SDS011;10431;50.228;9.112;2023-12-04T06:29:59;5.97;;;2.10;;
20545;SDS011;10431;50.228;9.112;2023-12-04T06:32:25;2.25;;;2.00;;
20545;SDS011;10431;50.228;9.112;2023-12-04T06:34:52;3.85;;;2.00;;
20545;SDS011;10431;50.228;9.112;2023-12-04T06:37:21;2.55;;;2.15;;
20545;SDS011;10431;50.228;9.112;2023-12-04T06:39:47;3.90;;;2.00;;
20545;SDS011;10431;50.228;9.112;2023-12-04T06:42:15;4.82;;;2.20;;
20545;SDS011;10431;50.228;9.112;2023-12-04T06:44:42;3.42;;;2.03;;
20545;SDS011;10431;50.228;9.112;2023-12-04T06:47:08;4.72;;;2.53;;
20545;SDS011;10431;50.228;9.112;2023-12-04T06:49:35;4.80;;;2.20;;
20545;SDS011;10431;50.228;9.112;2023-12-04T06:52:01;6.68;;;2.53;;
20545;SDS011;10431;50.228;9.112;2023-12-04T06:54:27;6.25;;;2.50;;
20545;SDS011;10431;50.228;9.112;2023-12-04T06:56:53;6.25;;;2.67;;
20545;SDS011;10431;50.228;9.112;2023-12-04T06:59:20;10.38;;;3.20;;
20545;SDS011;10431;50.228;9.112;2023-12-04T07:01:46;8.52;;;3.47;;
20545;SDS011;10431;50.228;9.112;2023-12-04T07:04:13;14.18;;;3.50;;
20545;SDS011;10431;50.228;9.112;2023-12-04T07:06:39;11.93;;;3.72;;
20545;SDS011;10431;50.228;9.112;2023-12-04T07:09:06;10.70;;;4.10;;
20545;SDS011;10431;50.228;9.112;2023-12-04T07:11:35;12.98;;;3.10;;
20545;SDS011;10431;50.228;9.112;2023-12-04T07:14:01;12.00;;;4.03;;
20545;SDS011;10431;50.228;9.112;2023-12-04T07:16:28;13.90;;;3.72;;
20545;SDS011;10431;50.228;9.112;2023-12-04T07:18:54;11.63;;;3.60;;
20545;SDS011;10431;50.228;9.112;2023-12-04T07:21:21;11.93;;;3.90;;
20545;SDS011;10431;50.228;9.112;2023-12-04T07:23:47;14.65;;;3.80;;
20545;SDS011;10431;50.228;9.112;2023-12-04T07:26:13;11.77;;;4.03;;
20545;SDS011;10431;50.228;9.112;2023-12-04T07:28:39;11.25;;;3.85;;
20545;SDS011;10431;50.228;9.112;2023-12-04T07:31:05;10.35;;;3.40;;
20545;SDS011;10431;50.228;9.112;2023-12-04T07:33:32;15.13;;;4.07;;
20545;SDS011;10431;50.228;9.112;2023-12-04T07:35:58;9.93;;;3.70;;
20545;SDS011;10431;50.228;9.112;2023-12-04T07:38:26;10.45;;;3.45;;
20545;SDS011;10431;50.228;9.112;2023-12-04T07:40:53;9.95;;;3.65;;
20545;SDS011;10431;50.228;9.112;2023-12-04T07:43:19;17.85;;;4.03;;
20545;SDS011;10431;50.228;9.112;2023-12-04T07:45:45;9.30;;;3.70;;
20545;SDS011;10431;50.228;9.112;2023-12-04T07:48:11;10.13;;;3.88;;
20545;SDS011;10431;50.228;9.112;2023-12-04T07:50:38;11.10;;;3.40;;
20545;SDS011;10431;50.228;9.112;2023-12-04T07:53:05;9.43;;;3.70;;
20545;SDS011;10431;50.228;9.112;2023-12-04T07:55:33;7.78;;;3.33;;
20545;SDS011;10431;50.228;9.112;2023-12-04T07:57:59;9.00;;;6.07;;
20545;SDS011;10431;50.228;9.112;2023-12-04T08:00:25;12.32;;;9.07;;
20545;SDS011;10431;50.228;9.112;2023-12-04T08:02:52;12.48;;;9.40;;
20545;SDS011;10431;50.228;9.112;2023-12-04T08:05:21;13.73;;;9.45;;
20545;SDS011;10431;50.228;9.112;2023-12-04T08:07:47;12.00;;;9.32;;
20545;SDS011;10431;50.228;9.112;2023-12-04T08:10:13;13.20;;;9.77;;
20545;SDS011;10431;50.228;9.112;2023-12-04T08:12:39;11.23;;;8.82;;
20545;SDS011;10431;50.228;9.112;2023-12-04T08:15:06;8.65;;;7.13;;
20545;SDS011;10431;50.228;9.112;2023-12-04T08:17:32;10.35;;;6.30;;
20545;SDS011;10431;50.228;9.112;2023-12-04T08:19:59;9.75;;;6.47;;
20545;SDS011;10431;50.228;9.112;2023-12-04T08:22:25;11.95;;;5.10;;
20545;SDS011;10431;50.228;9.112;2023-12-04T08:24:52;7.70;;;5.25;;
20545;SDS011;10431;50.228;9.112;2023-12-04T08:27:18;7.65;;;4.63;;
20545;SDS011;10431;50.228;9.112;2023-12-04T08:29:45;7.85;;;4.63;;
20545;SDS011;10431;50.228;9.112;2023-12-04T08:32:11;7.18;;;4.40;;
20545;SDS011;10431;50.228;9.112;2023-12-04T08:34:37;6.38;;;4.40;;
20545;SDS011;10431;50.228;9.112;2023-12-04T08:37:04;9.30;;;3.88;;
20545;SDS011;10431;50.228;9.112;2023-12-04T08:39:30;10.82;;;3.78;;
20545;SDS011;10431;50.228;9.112;2023-12-04T08:41:56;5.82;;;4.18;;
20545;SDS011;10431;50.228;9.112;2023-12-04T08:44:22;7.82;;;3.55;;
20545;SDS011;10431;50.228;9.112;2023-12-04T08:46:49;9.50;;;3.22;;
20545;SDS011;10431;50.228;9.112;2023-12-04T08:49:15;7.53;;;3.80;;
20545;SDS011;10431;50.228;9.112;2023-12-04T08:51:42;8.38;;;3.70;;
20545;SDS011;10431;50.228;9.112;2023-12-04T08:54:09;4.80;;;3.40;;
20545;SDS011;10431;50.228;9.112;2023-12-04T08:56:35;4.85;;;3.40;;
20545;SDS011;10431;50.228;9.112;2023-12-04T08:59:01;6.60;;;3.20;;
20545;SDS011;10431;50.228;9.112;2023-12-04T09:01:27;6.78;;;3.70;;
20545;SDS011;10431;50.228;9.112;2023-12-04T09:03:53;4.00;;;3.40;;
20545;SDS011;10431;50.228;9.112;2023-12-04T09:06:21;7.63;;;3.22;;
20545;SDS011;10431;50.228;9.112;2023-12-04T09:08:47;8.50;;;3.08;;
20545;SDS011;10431;50.228;9.112;2023-12-04T09:11:14;6.97;;;3.38;;
20545;SDS011;10431;50.228;9.112;2023-12-04T09:13:40;13.68;;;9.15;;
20545;SDS011;10431;50.228;9.112;2023-12-04T09:16:06;7.88;;;6.38;;
20545;SDS011;10431;50.228;9.112;2023-12-04T09:18:33;8.00;;;4.25;;
20545;SDS011;10431;50.228;9.112;2023-12-04T09:21:00;6.45;;;3.58;;
20545;SDS011;10431;50.228;9.112;2023-12-04T09:23:26;8.57;;;3.78;;
20545;SDS011;10431;50.228;9.112;2023-12-04T09:25:52;5.30;;;3.47;;
20545;SDS011;10431;50.228;9.112;2023-12-04T09:28:18;7.28;;;3.63;;
20545;SDS011;10431;50.228;9.112;2023-12-04T09:30:44;7.28;;;3.47;;
20545;SDS011;10431;50.228;9.112;2023-12-04T09:33:11;7.50;;;3.33;;
20545;SDS011;10431;50.228;9.112;2023-12-04T09:35:37;7.40;;;3.20;;
20545;SDS011;10431;50.228;9.112;2023-12-04T09:38:03;8.02;;;3.40;;
20545;SDS011;10431;50.228;9.112;2023-12-04T09:40:29;5.65;;;3.22;;
20545;SDS011;10431;50.228;9.112;2023-12-04T09:42:56;6.18;;;3.30;;
20545;SDS011;10431;50.228;9.112;2023-12-04T09:45:23;10.10;;;3.13;;
20545;SDS011;10431;50.228;9.112;2023-12-04T09:47:50;5.43;;;3.03;;
20545;SDS011;10431;50.228;9.112;2023-12-04T09:50:17;4.80;;;2.85;;
20545;SDS011;10431;50.228;9.112;2023-12-04T09:52:50;6.97;;;2.92;;
20545;SDS011;10431;50.228;9.112;2023-12-04T09:55:16;8.13;;;2.90;;
20545;SDS011;10431;50.228;9.112;2023-12-04T09:57:44;3.85;;;2.95;;
20545;SDS011;10431;50.228;9.112;2023-12-04T10:00:14;3.53;;;2.65;;
20545;SDS011;10431;50.228;9.112;2023-12-04T10:02:41;6.25;;;3.03;;
20545;SDS011;10431;50.228;9.112;2023-12-04T10:05:08;4.35;;;2.92;;
20545;SDS011;10431;50.228;9.112;2023-12-04T10:07:34;4.22;;;2.95;;
20545;SDS011;10431;50.228;9.112;2023-12-04T10:10:02;4.97;;;2.53;;
20545;SDS011;10431;50.228;9.112;2023-12-04T10:12:33;6.28;;;2.80;;
20545;SDS011;10431;50.228;9.112;2023-12-04T10:15:08;5.47;;;2.90;;
20545;SDS011;10431;50.228;9.112;2023-12-04T10:17:36;7.15;;;2.92;;
20545;SDS011;10431;50.228;9.112;2023-12-04T10:20:08;5.72;;;2.55;;
20545;SDS011;10431;50.228;9.112;2023-12-04T10:22:54;6.05;;;2.65;;
20545;SDS011;10431;50.228;9.112;2023-12-04T10:25:22;3.58;;;2.60;;
20545;SDS011;10431;50.228;9.112;2023-12-04T10:27:54;3.60;;;2.40;;
20545;SDS011;10431;50.228;9.112;2023-12-04T10:30:41;3.42;;;2.58;;
20545;SDS011;10431;50.228;9.112;2023-12-04T10:33:08;7.68;;;2.58;;
20545;SDS011;10431;50.228;9.112;2023-12-04T10:35:35;5.38;;;2.63;;
20545;SDS011;10431;50.228;9.112;2023-12-04T10:38:02;2.75;;;2.30;;
20545;SDS011;10431;50.228;9.112;2023-12-04T10:40:30;3.85;;;2.78;;
20545;SDS011;10431;50.228;9.112;2023-12-04T10:45:39;7.63;;;2.33;;
20545;SDS011;10431;50.228;9.112;2023-12-04T10:48:07;4.75;;;2.45;;
20545;SDS011;10431;50.228;9.112;2023-12-04T10:50:35;6.65;;;2.67;;
20545;SDS011;10431;50.228;9.112;2023-12-04T10:53:05;4.78;;;2.63;;
20545;SDS011;10431;50.228;9.112;2023-12-04T10:55:33;4.20;;;2.72;;
20545;SDS011;10431;50.228;9.112;2023-12-04T10:58:07;7.38;;;2.90;;
20545;SDS011;10431;50.228;9.112;2023-12-04T11:00:47;6.10;;;2.55;;
20545;SDS011;10431;50.228;9.112;2023-12-04T11:03:21;9.95;;;2.63;;
20545;SDS011;10431;50.228;9.112;2023-12-04T11:05:59;5.95;;;2.67;;
20545;SDS011;10431;50.228;9.112;2023-12-04T11:08:29;6.95;;;2.75;;
20545;SDS011;10431;50.228;9.112;2023-12-04T11:11:01;9.07;;;2.70;;
20545;SDS011;10431;50.228;9.112;2023-12-04T11:13:37;5.97;;;2.70;;
20545;SDS011;10431;50.228;9.112;2023-12-04T11:16:09;7.40;;;2.50;;
20545;SDS011;10431;50.228;9.112;2023-12-04T11:18:44;4.70;;;2.78;;
20545;SDS011;10431;50.228;9.112;2023-12-04T11:21:16;6.60;;;2.78;;
20545;SDS011;10431;50.228;9.112;2023-12-04T11:23:46;8.93;;;2.55;;
20545;SDS011;10431;50.228;9.112;2023-12-04T11:26:13;8.38;;;3.17;;
20545;SDS011;10431;50.228;9.112;2023-12-04T11:28:40;9.00;;;2.72;;
20545;SDS011;10431;50.228;9.112;2023-12-04T11:31:08;5.35;;;2.75;;
20545;SDS011;10431;50.228;9.112;2023-12-04T11:33:35;11.15;;;3.85;;
20545;SDS011;10431;50.228;9.112;2023-12-04T11:36:09;8.07;;;2.72;;
20545;SDS011;10431;50.228;9.112;2023-12-04T11:38:37;8.90;;;2.60;;
20545;SDS011;10431;50.228;9.112;2023-12-04T11:41:21;4.22;;;2.58;;
20545;SDS011;10431;50.228;9.112;2023-12-04T11:43:48;5.78;;;2.63;;
20545;SDS011;10431;50.228;9.112;2023-12-04T11:46:28;6.07;;;2.72;;
20545;SDS011;10431;50.228;9.112;2023-12-04T11:48:56;7.13;;;3.08;;
20545;SDS011;10431;50.228;9.112;2023-12-04T11:54:13;3.25;;;2.33;;
20545;SDS011;10431;50.228;9.112;2023-12-04T11:56:47;8.15;;;2.72;;
20545;SDS011;10431;50.228;9.112;2023-12-04T11:59:22;5.93;;;2.70;;
20545;SDS011;10431;50.228;9.112;2023-12-04T12:01:53;7.32;;;2.72;;
20545;SDS011;10431;50.228;9.112;2023-12-04T12:04:22;4.78;;;2.72;;
20545;SDS011;10431;50.228;9.112;2023-12-04T12:06:49;5.28;;;2.80;;
20545;SDS011;10431;50.228;9.112;2023-12-04T12:09:16;6.72;;;2.67;;
20545;SDS011;10431;50.228;9.112;2023-12-04T12:11:42;5.38;;;2.65;;
20545;SDS011;10431;50.228;9.112;2023-12-04T12:14:09;7.35;;;3.00;;
20545;SDS011;10431;50.228;9.112;2023-12-04T12:16:35;3.92;;;2.40;;
20545;SDS011;10431;50.228;9.112;2023-12-04T12:19:01;9.48;;;3.00;;
20545;SDS011;10431;50.228;9.112;2023-12-04T12:21:28;6.68;;;2.47;;
20545;SDS011;10431;50.228;9.112;2023-12-04T12:23:54;4.43;;;2.35;;
20545;SDS011;10431;50.228;9.112;2023-12-04T12:26:20;7.22;;;2.85;;
20545;SDS011;10431;50.228;9.112;2023-12-04T12:28:47;5.93;;;2.53;;
20545;SDS011;10431;50.228;9.112;2023-12-04T12:31:14;3.95;;;2.38;;
20545;SDS011;10431;50.228;9.112;2023-12-04T12:33:40;12.57;;;2.70;;
20545;SDS011;10431;50.228;9.112;2023-12-04T12:36:07;4.78;;;2.25;;
20545;SDS011;10431;50.228;9.112;2023-12-04T12:38:34;4.60;;;2.30;;
20545;SDS011;10431;50.228;9.112;2023-12-04T12:41:01;4.90;;;2.38;;
20545;SDS011;10431;50.228;9.112;2023-12-04T12:43:33;3.65;;;2.13;;
20545;SDS011;10431;50.228;9.112;2023-12-04T12:45:59;5.70;;;2.40;;
20545;SDS011;10431;50.228;9.112;2023-12-04T12:48:26;6.45;;;2.35;;
20545;SDS011;10431;50.228;9.112;2023-12-04T12:50:52;4.75;;;2.30;;
20545;SDS011;10431;50.228;9.112;2023-12-04T12:53:20;5.88;;;2.05;;
20545;SDS011;10431;50.228;9.112;2023-12-04T12:55:47;6.20;;;2.70;;
20545;SDS011;10431;50.228;9.112;2023-12-04T12:58:13;3.30;;;1.95;;
20545;SDS011;10431;50.228;9.112;2023-12-04T13:00:40;5.22;;;2.60;;
20545;SDS011;10431;50.228;9.112;2023-12-04T13:03:15;4.15;;;2.30;;
20545;SDS011;10431;50.228;9.112;2023-12-04T13:05:41;2.33;;;2.00;;
20545;SDS011;10431;50.228;9.112;2023-12-04T13:08:08;3.47;;;2.10;;
20545;SDS011;10431;50.228;9.112;2023-12-04T13:10:34;6.65;;;2.25;;
20545;SDS011;10431;50.228;9.112;2023-12-04T13:13:00;5.13;;;2.30;;
20545;SDS011;10431;50.228;9.112;2023-12-04T13:15:26;3.33;;;2.60;;
20545;SDS011;10431;50.228;9.112;2023-12-04T13:17:52;4.47;;;2.65;;
20545;SDS011;10431;50.228;9.112;2023-12-04T13:20:18;6.35;;;2.97;;
20545;SDS011;10431;50.228;9.112;2023-12-04T13:22:45;5.53;;;3.08;;
20545;SDS011;10431;50.228;9.112;2023-12-04T13:25:11;6.68;;;3.67;;
20545;SDS011;10431;50.228;9.112;2023-12-04T13:27:37;5.57;;;3.25;;
20545;SDS011;10431;50.228;9.112;2023-12-04T13:30:05;9.80;;;3.00;;
20545;SDS011;10431;50.228;9.112;2023-12-04T13:32:32;6.90;;;3.05;;
20545;SDS011;10431;50.228;9.112;2023-12-04T13:34:59;7.22;;;2.80;;
20545;SDS011;10431;50.228;9.112;2023-12-04T13:37:25;5.93;;;3.15;;
20545;SDS011;10431;50.228;9.112;2023-12-04T13:39:53;5.93;;;2.50;;
20545;SDS011;10431;50.228;9.112;2023-12-04T13:42:32;10.27;;;3.00;;
20545;SDS011;10431;50.228;9.112;2023-12-04T13:45:17;5.32;;;2.63;;
20545;SDS011;10431;50.228;9.112;2023-12-04T13:47:46;7.63;;;2.90;;
20545;SDS011;10431;50.228;9.112;2023-12-04T13:50:13;10.07;;;2.72;;
20545;SDS011;10431;50.228;9.112;2023-12-04T13:52:39;6.35;;;4.03;;
20545;SDS011;10431;50.228;9.112;2023-12-04T13:55:08;12.30;;;9.27;;
20545;SDS011;10431;50.228;9.112;2023-12-04T13:57:46;11.38;;;5.65;;
20545;SDS011;10431;50.228;9.112;2023-12-04T14:00:24;8.32;;;4.45;;
20545;SDS011;10431;50.228;9.112;2023-12-04T14:02:51;10.68;;;3.92;;
20545;SDS011;10431;50.228;9.112;2023-12-04T14:05:25;6.97;;;3.15;;
20545;SDS011;10431;50.228;9.112;2023-12-04T14:07:52;7.68;;;3.25;;
20545;SDS011;10431;50.228;9.112;2023-12-04T14:10:18;8.20;;;3.35;;
20545;SDS011;10431;50.228;9.112;2023-12-04T14:12:45;4.38;;;3.00;;
20545;SDS011;10431;50.228;9.112;2023-12-04T14:15:11;6.68;;;2.97;;
20545;SDS011;10431;50.228;9.112;2023-12-04T14:17:37;3.95;;;2.95;;
20545;SDS011;10431;50.228;9.112;2023-12-04T14:20:05;7.60;;;3.10;;
20545;SDS011;10431;50.228;9.112;2023-12-04T14:22:41;4.70;;;3.13;;
20545;SDS011;10431;50.228;9.112;2023-12-04T14:25:08;5.60;;;2.83;;
20545;SDS011;10431;50.228;9.112;2023-12-04T14:27:34;8.13;;;2.85;;
20545;SDS011;10431;50.228;9.112;2023-12-04T14:30:04;8.88;;;3.30;;
20545;SDS011;10431;50.228;9.112;2023-12-04T14:32:30;10.98;;;3.70;;
20545;SDS011;10431;50.228;9.112;2023-12-04T14:34:56;4.28;;;2.92;;
20545;SDS011;10431;50.228;9.112;2023-12-04T14:37:22;6.70;;;3.33;;
20545;SDS011;10431;50.228;9.112;2023-12-04T14:39:49;6.55;;;2.88;;
20545;SDS011;10431;50.228;9.112;2023-12-04T14:42:15;4.50;;;2.80;;
20545;SDS011;10431;50.228;9.112;2023-12-04T14:44:41;4.57;;;2.80;;
20545;SDS011;10431;50.228;9.112;2023-12-04T14:47:07;4.93;;;2.95;;
20545;SDS011;10431;50.228;9.112;2023-12-04T14:49:34;2.97;;;2.47;;
20545;SDS011;10431;50.228;9.112;2023-12-04T14:52:00;4.82;;;2.70;;